createdAt,value
2018-07-24T00:03:41.198Z,16.00
2018-07-24T00:08:44.798Z,14.50
2018-07-24T00:13:48.492Z,15.75
2018-07-24T00:18:52.294Z,14.75
2018-07-24T00:23:56.011Z,15.20
2018-07-24T00:28:59.717Z,13.20
2018-07-24T00:34:03.425Z,13.75
2018-07-24T00:39:08.253Z,13.25
2018-07-24T00:44:11.952Z,14.20
2018-07-24T00:49:15.721Z,12.80
2018-07-24T00:54:19.949Z,14.00
2018-07-24T00:59:23.541Z,12.75
2018-07-24T01:04:27.228Z,13.75
2018-07-24T01:09:30.939Z,13.60
2018-07-24T01:14:34.645Z,14.50
2018-07-24T01:19:38.347Z,15.20
2018-07-24T01:24:43.171Z,13.80
2018-07-24T01:29:46.895Z,14.60
2018-07-24T01:34:50.645Z,13.75
2018-07-24T01:39:54.322Z,13.00
2018-07-24T01:44:58.054Z,13.40
2018-07-24T01:50:05.612Z,14.00
2018-07-24T01:55:09.730Z,14.00
2018-07-24T02:00:15.856Z,14.40
2018-07-24T02:05:19.538Z,15.80
2018-07-24T02:10:23.336Z,14.00
2018-07-24T02:15:26.973Z,14.00
2018-07-24T02:20:30.655Z,12.80
2018-07-24T02:25:34.374Z,14.25
2018-07-24T02:30:38.074Z,11.50
2018-07-24T02:35:41.751Z,13.25
2018-07-24T02:40:45.478Z,13.50
2018-07-24T02:45:49.230Z,12.50
2018-07-24T02:50:52.887Z,14.75
2018-07-24T02:55:56.627Z,15.25
2018-07-24T03:01:00.348Z,13.40
2018-07-24T03:06:04.109Z,16.40
2018-07-24T03:11:07.847Z,16.00
2018-07-24T03:16:11.665Z,16.00
2018-07-24T03:21:15.502Z,13.80
2018-07-24T03:26:19.299Z,14.00
2018-07-24T03:31:23.002Z,16.75
2018-07-24T03:36:26.719Z,14.00
2018-07-24T03:41:30.539Z,14.75
2018-07-24T03:46:34.367Z,14.75
2018-07-24T03:51:38.078Z,17.25
2018-07-24T03:56:41.857Z,17.40
2018-07-24T04:01:45.570Z,14.60
2018-07-24T04:06:49.369Z,16.25
2018-07-24T04:11:53.227Z,17.20
2018-07-24T04:16:56.879Z,16.40
2018-07-24T04:22:00.599Z,15.25
2018-07-24T04:27:04.309Z,17.40
2018-07-24T04:32:08.120Z,17.80
2018-07-24T04:37:11.791Z,17.80
2018-07-24T04:42:15.503Z,17.00
2018-07-24T04:47:19.133Z,18.25
2018-07-24T04:52:22.747Z,16.80
2018-07-24T04:57:26.446Z,20.25
2018-07-24T05:02:30.159Z,18.75
2018-07-24T05:07:33.765Z,20.20
2018-07-24T05:12:37.535Z,18.50
2018-07-24T05:17:41.189Z,21.80
2018-07-24T05:22:44.902Z,19.80
2018-07-24T05:27:49.015Z,19.75
2018-07-24T05:32:52.630Z,22.60
2018-07-24T05:37:56.273Z,19.25
2018-07-24T05:42:59.925Z,20.20
2018-07-24T05:48:03.655Z,20.40
2018-07-24T05:53:07.497Z,22.00
2018-07-24T05:58:11.180Z,19.50
2018-07-24T06:03:14.831Z,21.40
2018-07-24T06:08:19.267Z,21.80
2018-07-24T06:13:24.025Z,20.60
2018-07-24T06:18:29.530Z,19.20
2018-07-24T06:23:34.602Z,16.00
2018-07-24T06:28:38.395Z,16.50
2018-07-24T06:33:42.157Z,16.80
2018-07-24T06:38:45.832Z,19.00
2018-07-24T06:43:49.514Z,15.75
2018-07-24T06:48:53.247Z,15.60
2018-07-24T06:53:56.909Z,14.20
2018-07-24T06:59:01.053Z,12.25
2018-07-24T07:04:04.763Z,13.75
2018-07-24T07:09:09.221Z,13.50
2018-07-24T07:14:12.939Z,13.00
2018-07-24T07:19:16.754Z,14.00
2018-07-24T07:24:20.873Z,12.75
2018-07-24T07:29:25.004Z,12.25
2018-07-24T07:34:28.638Z,11.75
2018-07-24T07:39:32.353Z,10.75
2018-07-24T07:44:36.042Z,11.20
2018-07-24T07:49:39.806Z,10.50
2018-07-24T07:54:43.494Z,10.00
2018-07-24T07:59:47.263Z,9.20
2018-07-24T08:04:51.037Z,10.60
2018-07-24T08:09:54.820Z,10.25
2018-07-24T08:14:58.608Z,9.75
2018-07-24T08:20:03.800Z,7.50
2018-07-24T08:25:08.002Z,9.80
2018-07-24T08:30:11.784Z,9.40
2018-07-24T08:35:15.446Z,9.20
2018-07-24T08:40:19.279Z,10.00
2018-07-24T08:45:22.988Z,12.25
2018-07-24T08:50:26.735Z,7.60
2018-07-24T08:55:30.684Z,9.00
2018-07-24T09:00:34.150Z,9.75
2018-07-24T09:05:37.922Z,9.60
2018-07-24T09:10:41.606Z,9.00
2018-07-24T09:15:45.303Z,11.00
2018-07-24T09:20:49.052Z,9.00
2018-07-24T09:25:52.792Z,8.80
2018-07-24T09:30:56.521Z,7.00
2018-07-24T09:36:00.344Z,8.75
2018-07-24T09:41:04.051Z,9.00
2018-07-24T09:46:07.852Z,7.00
2018-07-24T09:51:11.525Z,8.50
2018-07-24T09:56:15.277Z,6.75
2018-07-24T10:01:24.294Z,6.75
2018-07-24T10:06:27.944Z,9.50
2018-07-24T10:11:31.639Z,7.00
2018-07-24T10:16:35.408Z,9.20
2018-07-24T10:21:39.035Z,9.00
2018-07-24T10:26:42.720Z,9.60
2018-07-24T10:31:46.321Z,7.75
2018-07-24T10:36:50.118Z,8.20
2018-07-24T10:41:53.834Z,8.00
2018-07-24T10:46:57.517Z,7.50
2018-07-24T10:52:01.264Z,7.25
2018-07-24T10:57:04.970Z,7.00
2018-07-24T11:02:09.358Z,7.20
2018-07-24T11:07:13.063Z,8.20
2018-07-24T11:12:16.835Z,7.60
2018-07-24T11:17:20.548Z,8.00
2018-07-24T11:22:24.408Z,7.50
2018-07-24T11:27:28.104Z,6.50
2018-07-24T11:32:32.338Z,8.80
2018-07-24T11:37:35.987Z,7.50
2018-07-24T11:42:39.646Z,6.75
2018-07-24T11:47:43.277Z,6.00
2018-07-24T11:52:46.937Z,6.60
2018-07-24T11:57:50.607Z,6.50
2018-07-24T12:02:54.280Z,7.50
2018-07-24T12:07:58.136Z,7.40
2018-07-24T12:13:01.685Z,6.60
2018-07-24T12:18:05.387Z,8.00
2018-07-24T12:23:09.323Z,7.00
2018-07-24T12:28:13.045Z,7.20
2018-07-24T12:33:16.758Z,6.80
2018-07-24T12:38:20.493Z,6.00
2018-07-24T12:43:24.141Z,7.50
2018-07-24T12:48:27.749Z,8.00
2018-07-24T12:53:31.441Z,6.00
2018-07-24T12:58:35.064Z,7.50
2018-07-24T13:03:38.757Z,8.00
2018-07-24T13:08:42.500Z,10.00
2018-07-24T13:13:46.317Z,10.50
2018-07-24T13:18:50.018Z,9.00
2018-07-24T13:23:53.774Z,8.25
2018-07-24T13:28:57.718Z,0.00
2018-07-24T13:34:01.573Z,0.00
2018-07-24T13:39:08.459Z,0.00
2018-07-24T13:44:16.403Z,0.00
2018-07-24T13:54:50.986Z,8.80
2018-07-24T14:16:01.505Z,14.20
2018-07-24T14:21:19.644Z,16.75
2018-07-24T14:36:03.499Z,18.75
2018-07-24T14:44:46.563Z,15.20
2018-07-24T14:49:50.340Z,15.75
2018-07-24T14:54:54.971Z,11.80
2018-07-24T14:59:58.638Z,13.75
2018-07-24T15:05:05.238Z,11.60
2018-07-24T15:10:09.072Z,13.00
2018-07-24T15:15:13.020Z,10.40
2018-07-24T15:20:16.810Z,13.80
2018-07-24T15:25:20.731Z,9.40
2018-07-24T15:30:24.582Z,11.00
2018-07-24T15:35:28.511Z,11.00
2018-07-24T15:40:32.597Z,10.75
2018-07-24T15:45:36.804Z,9.25
2018-07-24T15:50:40.832Z,12.00
2018-07-24T15:55:44.733Z,9.00
2018-07-24T16:00:48.435Z,9.20
2018-07-24T16:05:52.474Z,9.50
2018-07-24T16:10:58.723Z,8.00
2018-07-24T16:16:04.087Z,9.00
2018-07-24T16:21:08.344Z,9.60
2018-07-24T16:26:13.254Z,7.25
2018-07-24T16:31:17.824Z,9.20
2018-07-24T16:36:21.698Z,8.20
2018-07-24T16:41:25.592Z,8.75
2018-07-24T16:46:30.235Z,9.75
2018-07-24T16:51:34.288Z,8.50
2018-07-24T16:56:39.092Z,9.25
2018-07-24T17:01:43.036Z,6.00
2018-07-24T17:06:46.654Z,8.00
2018-07-24T17:11:50.318Z,6.25
2018-07-24T17:16:54.105Z,8.00
2018-07-24T17:21:57.761Z,6.40
2018-07-24T17:27:01.537Z,7.00
2018-07-24T17:32:05.322Z,7.50
2018-07-24T17:37:09.258Z,6.60
2018-07-24T17:42:13.100Z,6.80
2018-07-24T17:47:16.860Z,5.50
2018-07-24T17:52:20.553Z,6.75
2018-07-24T17:57:24.259Z,7.25
2018-07-24T18:02:27.974Z,6.60
2018-07-24T18:07:31.837Z,6.40
2018-07-24T18:12:35.762Z,6.00
2018-07-24T18:17:39.565Z,5.80
2018-07-24T18:22:43.427Z,6.75
2018-07-24T18:27:47.511Z,4.50
2018-07-24T18:32:51.375Z,6.50
2018-07-24T18:37:55.914Z,5.60
2018-07-24T18:42:59.654Z,5.00
2018-07-24T18:48:03.405Z,5.75
2018-07-24T18:53:08.040Z,7.00
2018-07-24T18:58:12.020Z,5.40
2018-07-24T19:03:15.993Z,6.25
2018-07-24T19:08:20.433Z,7.80
2018-07-24T19:13:24.946Z,7.00
2018-07-24T19:18:28.802Z,8.20
2018-07-24T19:23:32.681Z,6.25
2018-07-24T19:28:36.446Z,4.75
2018-07-24T19:33:40.260Z,5.75
2018-07-24T19:38:43.968Z,8.00
2018-07-24T19:43:47.656Z,6.80
2018-07-24T19:48:52.062Z,7.50
2018-07-24T19:53:56.088Z,7.80
2018-07-24T19:59:00.789Z,9.40
2018-07-24T20:04:04.994Z,9.00
2018-07-24T20:09:11.659Z,6.50
2018-07-24T20:14:15.574Z,9.50
2018-07-24T20:19:19.303Z,10.00
2018-07-24T20:24:23.252Z,10.40
2018-07-24T20:29:27.303Z,10.00
2018-07-24T20:34:31.115Z,8.00
2018-07-24T20:39:35.029Z,10.00
2018-07-24T20:44:38.896Z,11.00
2018-07-24T20:49:42.533Z,10.50
2018-07-24T20:54:46.277Z,11.60
2018-07-24T20:59:50.141Z,11.00
2018-07-24T21:04:53.929Z,10.25
2018-07-24T21:09:57.671Z,11.50
2018-07-24T21:15:03.500Z,11.25
2018-07-24T21:20:08.156Z,9.67
2018-07-24T21:25:11.908Z,11.60
2018-07-24T21:30:15.684Z,11.20
2018-07-24T21:35:19.437Z,10.60
2018-07-24T21:40:23.100Z,10.75
2018-07-24T21:45:26.742Z,12.00
2018-07-24T21:50:30.522Z,10.25
2018-07-24T21:55:34.305Z,9.25
2018-07-24T22:00:38.406Z,10.00
2018-07-24T22:05:42.215Z,11.50
2018-07-24T22:10:46.400Z,11.60
2018-07-24T22:15:50.122Z,9.75
2018-07-24T22:20:54.261Z,11.60
2018-07-24T22:25:58.011Z,12.00
2018-07-24T22:31:01.745Z,9.20
2018-07-24T22:36:05.578Z,8.50
2018-07-24T22:41:09.370Z,10.00
2018-07-24T22:46:13.697Z,10.50
2018-07-24T22:51:18.297Z,9.50
2018-07-24T22:56:22.042Z,9.50
2018-07-24T23:01:25.787Z,9.60
2018-07-24T23:06:29.506Z,11.75
2018-07-24T23:11:33.114Z,11.00
2018-07-24T23:16:36.831Z,11.00
2018-07-24T23:21:40.647Z,11.80
2018-07-24T23:26:44.322Z,11.00
2018-07-24T23:31:48.010Z,11.50
2018-07-24T23:36:51.710Z,11.40
2018-07-24T23:41:55.408Z,7.75
2018-07-24T23:46:59.198Z,11.25
2018-07-24T23:52:02.917Z,9.80
2018-07-24T23:57:06.606Z,9.40
